sensor_id;sensor_type;location;lat;lon;timestamp;temperature;humidity
10451;DHT22;5273;51.290;6.918;2023-12-22T00:00:54;5.40;99.90
10451;DHT22;5273;51.290;6.918;2023-12-22T00:03:20;5.50;99.90
10451;DHT22;5273;51.290;6.918;2023-12-22T00:05:49;5.50;99.90
10451;DHT22;5273;51.290;6.918;2023-12-22T00:08:16;5.40;99.90
10451;DHT22;5273;51.290;6.918;2023-12-22T00:10:42;5.40;99.90
10451;DHT22;5273;51.290;6.918;2023-12-22T00:13:09;5.40;99.90
10451;DHT22;5273;51.290;6.918;2023-12-22T00:15:36;5.40;99.90
10451;DHT22;5273;51.290;6.918;2023-12-22T00:18:03;5.40;99.90
10451;DHT22;5273;51.290;6.918;2023-12-22T00:20:30;5.40;99.90
10451;DHT22;5273;51.290;6.918;2023-12-22T00:22:58;5.40;99.90
10451;DHT22;5273;51.290;6.918;2023-12-22T00:25:26;5.40;99.90
10451;DHT22;5273;51.290;6.918;2023-12-22T00:27:53;5.40;99.90
10451;DHT22;5273;51.290;6.918;2023-12-22T00:30:19;5.50;99.90
10451;DHT22;5273;51.290;6.918;2023-12-22T00:32:46;5.50;99.90
10451;DHT22;5273;51.290;6.918;2023-12-22T00:35:13;5.40;99.90
10451;DHT22;5273;51.290;6.918;2023-12-22T00:37:40;5.50;99.90
10451;DHT22;5273;51.290;6.918;2023-12-22T00:40:10;5.50;99.90
10451;DHT22;5273;51.290;6.918;2023-12-22T00:42:36;5.50;99.90
10451;DHT22;5273;51.290;6.918;2023-12-22T00:45:04;5.50;99.90
10451;DHT22;5273;51.290;6.918;2023-12-22T00:47:31;5.60;99.90
10451;DHT22;5273;51.290;6.918;2023-12-22T00:50:00;5.60;99.90
10451;DHT22;5273;51.290;6.918;2023-12-22T00:52:27;5.60;99.90
10451;DHT22;5273;51.290;6.918;2023-12-22T00:54:54;5.60;99.90
10451;DHT22;5273;51.290;6.918;2023-12-22T00:57:22;5.60;99.90
10451;DHT22;5273;51.290;6.918;2023-12-22T00:59:49;5.70;99.90
10451;DHT22;5273;51.290;6.918;2023-12-22T01:02:16;5.70;99.90
10451;DHT22;5273;51.290;6.918;2023-12-22T01:04:43;5.70;99.90
10451;DHT22;5273;51.290;6.918;2023-12-22T01:07:10;5.70;99.90
10451;DHT22;5273;51.290;6.918;2023-12-22T01:09:38;5.70;99.90
10451;DHT22;5273;51.290;6.918;2023-12-22T01:12:05;5.80;99.90
10451;DHT22;5273;51.290;6.918;2023-12-22T01:14:34;5.80;99.90
10451;DHT22;5273;51.290;6.918;2023-12-22T01:17:01;5.80;99.90
10451;DHT22;5273;51.290;6.918;2023-12-22T01:19:28;6.00;99.90
10451;DHT22;5273;51.290;6.918;2023-12-22T01:21:55;5.90;99.90
10451;DHT22;5273;51.290;6.918;2023-12-22T01:24:22;5.90;99.90
10451;DHT22;5273;51.290;6.918;2023-12-22T01:26:48;5.90;99.90
10451;DHT22;5273;51.290;6.918;2023-12-22T01:29:15;6.00;99.90
10451;DHT22;5273;51.290;6.918;2023-12-22T01:31:43;5.90;99.90
10451;DHT22;5273;51.290;6.918;2023-12-22T01:34:10;5.80;99.90
10451;DHT22;5273;51.290;6.918;2023-12-22T01:36:37;5.80;99.90
10451;DHT22;5273;51.290;6.918;2023-12-22T01:39:04;5.90;99.90
10451;DHT22;5273;51.290;6.918;2023-12-22T01:41:31;5.90;99.90
10451;DHT22;5273;51.290;6.918;2023-12-22T01:43:57;5.90;99.90
10451;DHT22;5273;51.290;6.918;2023-12-22T01:46:24;5.90;99.90
10451;DHT22;5273;51.290;6.918;2023-12-22T01:48:53;5.90;99.90
10451;DHT22;5273;51.290;6.918;2023-12-22T01:51:20;5.90;99.90
10451;DHT22;5273;51.290;6.918;2023-12-22T01:53:47;6.00;99.90
10451;DHT22;5273;51.290;6.918;2023-12-22T01:56:14;6.00;99.90
10451;DHT22;5273;51.290;6.918;2023-12-22T01:58:41;6.00;99.90
10451;DHT22;5273;51.290;6.918;2023-12-22T02:01:08;6.00;99.90
10451;DHT22;5273;51.290;6.918;2023-12-22T02:03:35;6.00;99.90
10451;DHT22;5273;51.290;6.918;2023-12-22T02:06:05;6.00;99.90
10451;DHT22;5273;51.290;6.918;2023-12-22T02:08:32;5.90;99.90
10451;DHT22;5273;51.290;6.918;2023-12-22T02:10:59;6.00;99.90
10451;DHT22;5273;51.290;6.918;2023-12-22T02:13:26;5.80;99.90
10451;DHT22;5273;51.290;6.918;2023-12-22T02:16:01;5.80;99.90
10451;DHT22;5273;51.290;6.918;2023-12-22T02:18:35;5.70;99.90
10451;DHT22;5273;51.290;6.918;2023-12-22T02:21:06;5.60;99.90
10451;DHT22;5273;51.290;6.918;2023-12-22T02:23:34;5.50;99.90
10451;DHT22;5273;51.290;6.918;2023-12-22T02:26:08;5.40;99.90
10451;DHT22;5273;51.290;6.918;2023-12-22T02:28:37;5.30;99.90
10451;DHT22;5273;51.290;6.918;2023-12-22T02:31:12;5.20;99.90
10451;DHT22;5273;51.290;6.918;2023-12-22T02:33:41;5.20;99.90
10451;DHT22;5273;51.290;6.918;2023-12-22T02:36:09;5.20;99.90
10451;DHT22;5273;51.290;6.918;2023-12-22T02:38:39;5.20;99.90
10451;DHT22;5273;51.290;6.918;2023-12-22T02:41:07;5.20;99.90
10451;DHT22;5273;51.290;6.918;2023-12-22T02:43:34;5.10;99.90
10451;DHT22;5273;51.290;6.918;2023-12-22T02:46:01;5.10;99.90
10451;DHT22;5273;51.290;6.918;2023-12-22T02:48:28;5.10;99.90
10451;DHT22;5273;51.290;6.918;2023-12-22T02:50:55;5.10;99.90
10451;DHT22;5273;51.290;6.918;2023-12-22T02:53:22;5.10;99.90
10451;DHT22;5273;51.290;6.918;2023-12-22T02:55:50;5.10;99.90
10451;DHT22;5273;51.290;6.918;2023-12-22T02:58:17;5.10;99.90
10451;DHT22;5273;51.290;6.918;2023-12-22T03:00:44;5.10;99.90
10451;DHT22;5273;51.290;6.918;2023-12-22T03:03:11;5.10;99.90
10451;DHT22;5273;51.290;6.918;2023-12-22T03:05:38;5.10;99.90
10451;DHT22;5273;51.290;6.918;2023-12-22T03:08:06;5.10;99.90
10451;DHT22;5273;51.290;6.918;2023-12-22T03:10:32;5.10;99.90
10451;DHT22;5273;51.290;6.918;2023-12-22T03:13:01;5.10;99.90
10451;DHT22;5273;51.290;6.918;2023-12-22T03:15:27;5.20;99.90
10451;DHT22;5273;51.290;6.918;2023-12-22T03:17:54;5.20;99.90
10451;DHT22;5273;51.290;6.918;2023-12-22T03:20:21;5.20;99.90
10451;DHT22;5273;51.290;6.918;2023-12-22T03:22:48;5.20;99.90
10451;DHT22;5273;51.290;6.918;2023-12-22T03:25:14;5.20;99.90
10451;DHT22;5273;51.290;6.918;2023-12-22T03:27:41;5.20;99.90
10451;DHT22;5273;51.290;6.918;2023-12-22T03:30:10;5.10;99.90
10451;DHT22;5273;51.290;6.918;2023-12-22T03:32:37;5.10;99.90
10451;DHT22;5273;51.290;6.918;2023-12-22T03:35:04;5.10;99.90
10451;DHT22;5273;51.290;6.918;2023-12-22T03:37:31;5.10;99.90
10451;DHT22;5273;51.290;6.918;2023-12-22T03:39:58;5.10;99.90
10451;DHT22;5273;51.290;6.918;2023-12-22T03:42:25;5.10;99.90
10451;DHT22;5273;51.290;6.918;2023-12-22T03:44:52;5.00;99.90
10451;DHT22;5273;51.290;6.918;2023-12-22T03:47:20;5.00;99.90
10451;DHT22;5273;51.290;6.918;2023-12-22T03:49:47;5.00;99.90
10451;DHT22;5273;51.290;6.918;2023-12-22T03:52:14;4.90;99.90
10451;DHT22;5273;51.290;6.918;2023-12-22T03:54:41;4.90;99.90
10451;DHT22;5273;51.290;6.918;2023-12-22T03:57:08;4.90;99.90
10451;DHT22;5273;51.290;6.918;2023-12-22T03:59:35;4.90;99.90
10451;DHT22;5273;51.290;6.918;2023-12-22T04:02:01;4.90;99.90
10451;DHT22;5273;51.290;6.918;2023-12-22T04:04:30;4.90;99.90
10451;DHT22;5273;51.290;6.918;2023-12-22T04:06:57;4.90;99.90
10451;DHT22;5273;51.290;6.918;2023-12-22T04:09:24;4.90;99.90
10451;DHT22;5273;51.290;6.918;2023-12-22T04:11:50;4.90;99.90
10451;DHT22;5273;51.290;6.918;2023-12-22T04:14:17;5.00;99.90
10451;DHT22;5273;51.290;6.918;2023-12-22T04:16:44;5.00;99.90
10451;DHT22;5273;51.290;6.918;2023-12-22T04:19:11;5.00;99.90
10451;DHT22;5273;51.290;6.918;2023-12-22T04:21:39;5.00;99.90
10451;DHT22;5273;51.290;6.918;2023-12-22T04:24:06;5.00;99.90
10451;DHT22;5273;51.290;6.918;2023-12-22T04:26:33;5.00;99.90
10451;DHT22;5273;51.290;6.918;2023-12-22T04:29:00;5.10;99.90
10451;DHT22;5273;51.290;6.918;2023-12-22T04:31:26;5.10;99.90
10451;DHT22;5273;51.290;6.918;2023-12-22T04:33:53;5.00;99.90
10451;DHT22;5273;51.290;6.918;2023-12-22T04:36:21;5.10;99.90
10451;DHT22;5273;51.290;6.918;2023-12-22T04:38:49;5.10;99.90
10451;DHT22;5273;51.290;6.918;2023-12-22T04:41:16;5.10;99.90
10451;DHT22;5273;51.290;6.918;2023-12-22T04:43:43;5.10;99.90
10451;DHT22;5273;51.290;6.918;2023-12-22T04:46:10;5.20;99.90
10451;DHT22;5273;51.290;6.918;2023-12-22T04:48:36;5.20;99.90
10451;DHT22;5273;51.290;6.918;2023-12-22T04:51:04;5.20;99.90
10451;DHT22;5273;51.290;6.918;2023-12-22T04:53:30;5.20;99.90
10451;DHT22;5273;51.290;6.918;2023-12-22T04:55:59;5.30;99.90
10451;DHT22;5273;51.290;6.918;2023-12-22T04:58:25;5.30;99.90
10451;DHT22;5273;51.290;6.918;2023-12-22T05:00:52;5.40;99.90
10451;DHT22;5273;51.290;6.918;2023-12-22T05:03:19;5.50;99.90
10451;DHT22;5273;51.290;6.918;2023-12-22T05:05:46;5.50;99.90
10451;DHT22;5273;51.290;6.918;2023-12-22T05:08:12;5.60;99.90
10451;DHT22;5273;51.290;6.918;2023-12-22T05:10:41;5.60;99.90
10451;DHT22;5273;51.290;6.918;2023-12-22T05:13:09;5.70;99.90
10451;DHT22;5273;51.290;6.918;2023-12-22T05:15:36;5.80;99.90
10451;DHT22;5273;51.290;6.918;2023-12-22T05:18:03;5.80;99.90
10451;DHT22;5273;51.290;6.918;2023-12-22T05:20:30;5.90;99.90
10451;DHT22;5273;51.290;6.918;2023-12-22T05:22:57;5.90;99.90
10451;DHT22;5273;51.290;6.918;2023-12-22T05:25:24;6.00;99.90
10451;DHT22;5273;51.290;6.918;2023-12-22T05:27:51;6.00;99.90
10451;DHT22;5273;51.290;6.918;2023-12-22T05:30:19;6.00;99.90
10451;DHT22;5273;51.290;6.918;2023-12-22T05:32:46;6.00;99.90
10451;DHT22;5273;51.290;6.918;2023-12-22T05:35:13;6.00;99.90
10451;DHT22;5273;51.290;6.918;2023-12-22T05:37:40;6.00;99.90
10451;DHT22;5273;51.290;6.918;2023-12-22T05:40:07;6.10;99.90
10451;DHT22;5273;51.290;6.918;2023-12-22T05:42:35;5.90;99.90
10451;DHT22;5273;51.290;6.918;2023-12-22T05:45:02;5.90;99.90
10451;DHT22;5273;51.290;6.918;2023-12-22T05:47:31;5.80;99.90
10451;DHT22;5273;51.290;6.918;2023-12-22T05:49:59;5.70;99.90
10451;DHT22;5273;51.290;6.918;2023-12-22T05:52:26;5.70;99.90
10451;DHT22;5273;51.290;6.918;2023-12-22T05:54:52;5.60;99.90
10451;DHT22;5273;51.290;6.918;2023-12-22T05:57:19;5.50;99.90
10451;DHT22;5273;51.290;6.918;2023-12-22T05:59:46;5.50;99.90
10451;DHT22;5273;51.290;6.918;2023-12-22T06:02:13;5.50;99.90
10451;DHT22;5273;51.290;6.918;2023-12-22T06:04:41;5.50;99.90
10451;DHT22;5273;51.290;6.918;2023-12-22T06:07:09;5.40;99.90
10451;DHT22;5273;51.290;6.918;2023-12-22T06:09:36;5.50;99.90
10451;DHT22;5273;51.290;6.918;2023-12-22T06:12:04;5.50;99.90
10451;DHT22;5273;51.290;6.918;2023-12-22T06:14:31;5.50;99.90
10451;DHT22;5273;51.290;6.918;2023-12-22T06:17:00;5.40;99.90
10451;DHT22;5273;51.290;6.918;2023-12-22T06:19:27;5.50;99.90
10451;DHT22;5273;51.290;6.918;2023-12-22T06:21:57;5.50;99.90
10451;DHT22;5273;51.290;6.918;2023-12-22T06:24:25;5.50;99.90
10451;DHT22;5273;51.290;6.918;2023-12-22T06:26:52;5.50;99.90
10451;DHT22;5273;51.290;6.918;2023-12-22T06:29:19;5.50;99.90
10451;DHT22;5273;51.290;6.918;2023-12-22T06:31:46;5.50;99.90
10451;DHT22;5273;51.290;6.918;2023-12-22T06:34:16;5.50;99.90
10451;DHT22;5273;51.290;6.918;2023-12-22T06:36:43;5.50;99.90
10451;DHT22;5273;51.290;6.918;2023-12-22T06:39:11;5.50;99.90
10451;DHT22;5273;51.290;6.918;2023-12-22T06:41:38;5.50;99.90
10451;DHT22;5273;51.290;6.918;2023-12-22T06:44:04;5.50;99.90
10451;DHT22;5273;51.290;6.918;2023-12-22T06:46:31;5.50;99.90
10451;DHT22;5273;51.290;6.918;2023-12-22T06:48:59;5.60;99.90
10451;DHT22;5273;51.290;6.918;2023-12-22T06:51:27;5.60;99.90
10451;DHT22;5273;51.290;6.918;2023-12-22T06:53:56;5.60;99.90
10451;DHT22;5273;51.290;6.918;2023-12-22T06:56:28;5.60;99.90
10451;DHT22;5273;51.290;6.918;2023-12-22T06:58:56;5.60;99.90
10451;DHT22;5273;51.290;6.918;2023-12-22T07:01:25;5.60;99.90
10451;DHT22;5273;51.290;6.918;2023-12-22T07:03:52;5.70;99.90
10451;DHT22;5273;51.290;6.918;2023-12-22T07:06:20;5.70;99.90
10451;DHT22;5273;51.290;6.918;2023-12-22T07:11:47;5.80;99.90
10451;DHT22;5273;51.290;6.918;2023-12-22T07:14:14;5.80;99.90
10451;DHT22;5273;51.290;6.918;2023-12-22T07:16:41;5.80;99.90
10451;DHT22;5273;51.290;6.918;2023-12-22T07:19:09;5.90;99.90
10451;DHT22;5273;51.290;6.918;2023-12-22T07:21:36;6.00;99.90
10451;DHT22;5273;51.290;6.918;2023-12-22T07:24:04;6.10;99.90
10451;DHT22;5273;51.290;6.918;2023-12-22T07:26:31;6.10;99.90
10451;DHT22;5273;51.290;6.918;2023-12-22T07:28:59;6.20;99.90
10451;DHT22;5273;51.290;6.918;2023-12-22T07:31:26;6.30;99.90
10451;DHT22;5273;51.290;6.918;2023-12-22T07:33:53;6.30;99.90
10451;DHT22;5273;51.290;6.918;2023-12-22T07:36:20;6.40;99.90
10451;DHT22;5273;51.290;6.918;2023-12-22T07:38:47;6.50;99.90
10451;DHT22;5273;51.290;6.918;2023-12-22T07:41:14;6.50;99.90
10451;DHT22;5273;51.290;6.918;2023-12-22T07:43:41;6.50;99.90
10451;DHT22;5273;51.290;6.918;2023-12-22T07:46:16;6.60;99.90
10451;DHT22;5273;51.290;6.918;2023-12-22T07:48:43;6.60;99.90
10451;DHT22;5273;51.290;6.918;2023-12-22T07:51:10;6.60;99.90
10451;DHT22;5273;51.290;6.918;2023-12-22T07:53:37;6.60;99.90
10451;DHT22;5273;51.290;6.918;2023-12-22T07:56:05;6.60;99.90
10451;DHT22;5273;51.290;6.918;2023-12-22T07:58:32;6.70;99.90
10451;DHT22;5273;51.290;6.918;2023-12-22T08:00:59;6.70;99.90
10451;DHT22;5273;51.290;6.918;2023-12-22T08:03:27;6.80;99.90
10451;DHT22;5273;51.290;6.918;2023-12-22T08:05:54;6.80;99.90
10451;DHT22;5273;51.290;6.918;2023-12-22T08:08:21;6.80;99.90
10451;DHT22;5273;51.290;6.918;2023-12-22T08:10:48;6.90;99.90
10451;DHT22;5273;51.290;6.918;2023-12-22T08:13:15;6.90;99.90
10451;DHT22;5273;51.290;6.918;2023-12-22T08:15:43;6.90;99.90
10451;DHT22;5273;51.290;6.918;2023-12-22T08:18:10;7.10;99.90
10451;DHT22;5273;51.290;6.918;2023-12-22T08:20:38;7.00;99.90
10451;DHT22;5273;51.290;6.918;2023-12-22T08:23:05;7.00;99.90
10451;DHT22;5273;51.290;6.918;2023-12-22T08:25:31;7.00;99.90
10451;DHT22;5273;51.290;6.918;2023-12-22T08:27:58;7.00;99.90
10451;DHT22;5273;51.290;6.918;2023-12-22T08:30:26;7.00;99.90
10451;DHT22;5273;51.290;6.918;2023-12-22T08:32:53;7.10;99.90
10451;DHT22;5273;51.290;6.918;2023-12-22T08:35:20;7.10;99.90
10451;DHT22;5273;51.290;6.918;2023-12-22T08:37:48;7.10;99.90
10451;DHT22;5273;51.290;6.918;2023-12-22T08:40:15;7.20;99.90
10451;DHT22;5273;51.290;6.918;2023-12-22T08:42:42;7.20;99.90
10451;DHT22;5273;51.290;6.918;2023-12-22T08:45:09;7.20;99.90
10451;DHT22;5273;51.290;6.918;2023-12-22T08:47:36;7.30;99.90
10451;DHT22;5273;51.290;6.918;2023-12-22T08:50:03;7.20;99.90
10451;DHT22;5273;51.290;6.918;2023-12-22T08:52:33;7.30;99.90
10451;DHT22;5273;51.290;6.918;2023-12-22T08:55:02;7.40;99.90
10451;DHT22;5273;51.290;6.918;2023-12-22T08:57:28;7.40;99.90
10451;DHT22;5273;51.290;6.918;2023-12-22T08:59:55;7.40;99.90
10451;DHT22;5273;51.290;6.918;2023-12-22T09:02:22;7.50;99.90
10451;DHT22;5273;51.290;6.918;2023-12-22T09:04:49;7.50;99.90
10451;DHT22;5273;51.290;6.918;2023-12-22T09:07:16;7.50;99.90
10451;DHT22;5273;51.290;6.918;2023-12-22T09:09:44;7.50;99.90
10451;DHT22;5273;51.290;6.918;2023-12-22T09:12:12;7.60;99.90
10451;DHT22;5273;51.290;6.918;2023-12-22T09:14:39;7.60;99.90
10451;DHT22;5273;51.290;6.918;2023-12-22T09:17:06;7.60;99.90
10451;DHT22;5273;51.290;6.918;2023-12-22T09:19:33;7.60;99.90
10451;DHT22;5273;51.290;6.918;2023-12-22T09:22:03;7.70;99.90
10451;DHT22;5273;51.290;6.918;2023-12-22T09:24:30;7.70;99.90
10451;DHT22;5273;51.290;6.918;2023-12-22T09:26:57;7.70;99.90
10451;DHT22;5273;51.290;6.918;2023-12-22T09:29:29;7.70;99.90
10451;DHT22;5273;51.290;6.918;2023-12-22T09:31:57;7.70;99.90
10451;DHT22;5273;51.290;6.918;2023-12-22T09:34:26;7.70;99.90
10451;DHT22;5273;51.290;6.918;2023-12-22T09:36:53;7.80;99.90
10451;DHT22;5273;51.290;6.918;2023-12-22T09:39:20;7.80;99.90
10451;DHT22;5273;51.290;6.918;2023-12-22T09:41:48;7.90;99.90
10451;DHT22;5273;51.290;6.918;2023-12-22T09:44:19;7.90;99.90
10451;DHT22;5273;51.290;6.918;2023-12-22T09:46:48;7.90;99.90
10451;DHT22;5273;51.290;6.918;2023-12-22T09:49:17;7.90;99.90
10451;DHT22;5273;51.290;6.918;2023-12-22T09:51:46;7.90;99.90
10451;DHT22;5273;51.290;6.918;2023-12-22T09:54:13;7.90;99.90
10451;DHT22;5273;51.290;6.918;2023-12-22T09:56:41;8.00;99.90
10451;DHT22;5273;51.290;6.918;2023-12-22T09:59:10;7.90;99.90
10451;DHT22;5273;51.290;6.918;2023-12-22T10:01:40;8.00;99.90
10451;DHT22;5273;51.290;6.918;2023-12-22T10:04:10;7.90;99.90
10451;DHT22;5273;51.290;6.918;2023-12-22T10:06:37;8.00;99.90
10451;DHT22;5273;51.290;6.918;2023-12-22T10:09:05;8.00;99.90
10451;DHT22;5273;51.290;6.918;2023-12-22T10:11:34;8.10;99.90
10451;DHT22;5273;51.290;6.918;2023-12-22T10:14:02;8.10;99.90
10451;DHT22;5273;51.290;6.918;2023-12-22T10:16:30;8.10;99.90
10451;DHT22;5273;51.290;6.918;2023-12-22T10:18:58;8.20;99.90
10451;DHT22;5273;51.290;6.918;2023-12-22T10:21:27;8.20;99.90
10451;DHT22;5273;51.290;6.918;2023-12-22T10:23:56;8.20;99.90
10451;DHT22;5273;51.290;6.918;2023-12-22T10:26:23;8.20;99.90
10451;DHT22;5273;51.290;6.918;2023-12-22T10:28:50;8.30;99.90
10451;DHT22;5273;51.290;6.918;2023-12-22T10:31:18;8.30;99.90
10451;DHT22;5273;51.290;6.918;2023-12-22T10:33:44;8.30;99.90
10451;DHT22;5273;51.290;6.918;2023-12-22T10:36:12;8.40;99.90
10451;DHT22;5273;51.290;6.918;2023-12-22T10:38:40;8.40;99.90
10451;DHT22;5273;51.290;6.918;2023-12-22T10:41:08;8.40;99.90
10451;DHT22;5273;51.290;6.918;2023-12-22T10:43:38;8.40;99.90
10451;DHT22;5273;51.290;6.918;2023-12-22T10:46:05;8.40;99.90
10451;DHT22;5273;51.290;6.918;2023-12-22T10:48:33;8.30;99.90
10451;DHT22;5273;51.290;6.918;2023-12-22T10:51:00;8.30;99.90
10451;DHT22;5273;51.290;6.918;2023-12-22T10:53:27;8.30;99.90
10451;DHT22;5273;51.290;6.918;2023-12-22T10:55:56;8.40;99.90
10451;DHT22;5273;51.290;6.918;2023-12-22T10:58:23;8.30;99.90
10451;DHT22;5273;51.290;6.918;2023-12-22T11:00:50;8.40;99.90
10451;DHT22;5273;51.290;6.918;2023-12-22T11:03:19;8.40;99.90
10451;DHT22;5273;51.290;6.918;2023-12-22T11:05:48;8.60;99.90
10451;DHT22;5273;51.290;6.918;2023-12-22T11:08:17;8.50;99.90
10451;DHT22;5273;51.290;6.918;2023-12-22T11:10:49;8.60;99.90
10451;DHT22;5273;51.290;6.918;2023-12-22T11:13:23;8.60;99.90
10451;DHT22;5273;51.290;6.918;2023-12-22T11:15:52;8.70;99.90
10451;DHT22;5273;51.290;6.918;2023-12-22T11:18:19;8.60;99.90
10451;DHT22;5273;51.290;6.918;2023-12-22T11:20:48;8.60;99.90
10451;DHT22;5273;51.290;6.918;2023-12-22T11:23:17;8.60;99.90
10451;DHT22;5273;51.290;6.918;2023-12-22T11:25:46;8.70;99.90
10451;DHT22;5273;51.290;6.918;2023-12-22T11:28:17;8.70;99.90
10451;DHT22;5273;51.290;6.918;2023-12-22T11:30:49;8.70;99.90
10451;DHT22;5273;51.290;6.918;2023-12-22T11:33:18;8.70;99.90
10451;DHT22;5273;51.290;6.918;2023-12-22T11:35:46;8.70;99.90
10451;DHT22;5273;51.290;6.918;2023-12-22T11:38:13;8.80;99.90
10451;DHT22;5273;51.290;6.918;2023-12-22T11:40:40;8.80;99.90
10451;DHT22;5273;51.290;6.918;2023-12-22T11:43:07;8.80;99.90
10451;DHT22;5273;51.290;6.918;2023-12-22T11:45:35;8.90;99.90
10451;DHT22;5273;51.290;6.918;2023-12-22T11:48:08;8.90;99.90
10451;DHT22;5273;51.290;6.918;2023-12-22T11:50:35;8.90;99.90
10451;DHT22;5273;51.290;6.918;2023-12-22T11:53:19;8.90;99.90
10451;DHT22;5273;51.290;6.918;2023-12-22T11:55:56;9.00;99.90
10451;DHT22;5273;51.290;6.918;2023-12-22T11:58:33;9.00;99.90
10451;DHT22;5273;51.290;6.918;2023-12-22T12:01:01;9.10;99.90
10451;DHT22;5273;51.290;6.918;2023-12-22T12:03:31;9.00;99.90
10451;DHT22;5273;51.290;6.918;2023-12-22T12:06:14;9.00;99.90
10451;DHT22;5273;51.290;6.918;2023-12-22T12:08:42;9.10;99.90
10451;DHT22;5273;51.290;6.918;2023-12-22T12:11:09;9.10;99.90
10451;DHT22;5273;51.290;6.918;2023-12-22T12:13:42;9.10;99.90
10451;DHT22;5273;51.290;6.918;2023-12-22T12:16:11;9.10;99.90
10451;DHT22;5273;51.290;6.918;2023-12-22T12:18:40;9.10;99.90
10451;DHT22;5273;51.290;6.918;2023-12-22T12:21:08;9.20;99.90
10451;DHT22;5273;51.290;6.918;2023-12-22T12:23:35;9.30;99.90
10451;DHT22;5273;51.290;6.918;2023-12-22T12:26:03;9.30;99.90
10451;DHT22;5273;51.290;6.918;2023-12-22T12:28:31;9.30;99.90
10451;DHT22;5273;51.290;6.918;2023-12-22T12:30:59;9.50;99.90
10451;DHT22;5273;51.290;6.918;2023-12-22T12:33:27;9.40;99.90
10451;DHT22;5273;51.290;6.918;2023-12-22T12:35:57;9.40;99.90
10451;DHT22;5273;51.290;6.918;2023-12-22T12:38:36;9.50;99.90
10451;DHT22;5273;51.290;6.918;2023-12-22T12:41:04;9.50;99.90
10451;DHT22;5273;51.290;6.918;2023-12-22T12:43:32;9.60;99.90
10451;DHT22;5273;51.290;6.918;2023-12-22T12:46:04;9.50;99.90
10451;DHT22;5273;51.290;6.918;2023-12-22T12:48:31;9.60;99.90
10451;DHT22;5273;51.290;6.918;2023-12-22T12:51:03;9.60;99.90
10451;DHT22;5273;51.290;6.918;2023-12-22T12:53:31;9.60;99.90
10451;DHT22;5273;51.290;6.918;2023-12-22T12:55:58;9.60;99.90
10451;DHT22;5273;51.290;6.918;2023-12-22T12:58:29;9.60;99.90
10451;DHT22;5273;51.290;6.918;2023-12-22T13:01:04;9.60;99.90
10451;DHT22;5273;51.290;6.918;2023-12-22T13:03:32;9.60;99.90
10451;DHT22;5273;51.290;6.918;2023-12-22T13:06:09;9.70;99.90
10451;DHT22;5273;51.290;6.918;2023-12-22T13:08:36;9.60;99.90
10451;DHT22;5273;51.290;6.918;2023-12-22T13:11:06;9.60;99.90
10451;DHT22;5273;51.290;6.918;2023-12-22T13:13:41;9.60;99.90
10451;DHT22;5273;51.290;6.918;2023-12-22T13:16:08;9.60;99.90
10451;DHT22;5273;51.290;6.918;2023-12-22T13:18:36;9.50;99.90
10451;DHT22;5273;51.290;6.918;2023-12-22T13:21:03;9.50;99.90
10451;DHT22;5273;51.290;6.918;2023-12-22T13:23:31;9.50;99.90
10451;DHT22;5273;51.290;6.918;2023-12-22T13:25:59;9.50;99.90
10451;DHT22;5273;51.290;6.918;2023-12-22T13:28:26;9.40;99.90
10451;DHT22;5273;51.290;6.918;2023-12-22T13:30:53;9.40;99.90
10451;DHT22;5273;51.290;6.918;2023-12-22T13:33:20;9.50;99.90
10451;DHT22;5273;51.290;6.918;2023-12-22T13:35:48;9.50;99.90
10451;DHT22;5273;51.290;6.918;2023-12-22T13:38:15;9.50;99.90
10451;DHT22;5273;51.290;6.918;2023-12-22T13:40:46;9.50;99.90
10451;DHT22;5273;51.290;6.918;2023-12-22T13:43:13;9.50;99.90
10451;DHT22;5273;51.290;6.918;2023-12-22T13:45:40;9.40;99.90
10451;DHT22;5273;51.290;6.918;2023-12-22T13:48:07;9.40;99.90
10451;DHT22;5273;51.290;6.918;2023-12-22T13:50:34;9.20;99.90
10451;DHT22;5273;51.290;6.918;2023-12-22T13:53:07;9.30;99.90
10451;DHT22;5273;51.290;6.918;2023-12-22T13:55:34;9.30;99.90
10451;DHT22;5273;51.290;6.918;2023-12-22T13:58:04;9.20;99.90
10451;DHT22;5273;51.290;6.918;2023-12-22T14:00:31;9.20;99.90
10451;DHT22;5273;51.290;6.918;2023-12-22T14:02:58;9.20;99.90
10451;DHT22;5273;51.290;6.918;2023-12-22T14:05:27;9.20;99.90
10451;DHT22;5273;51.290;6.918;2023-12-22T14:07:54;9.20;99.90
10451;DHT22;5273;51.290;6.918;2023-12-22T14:10:21;9.20;99.90
10451;DHT22;5273;51.290;6.918;2023-12-22T14:12:48;9.30;99.90
10451;DHT22;5273;51.290;6.918;2023-12-22T14:15:16;9.30;99.90
10451;DHT22;5273;51.290;6.918;2023-12-22T14:17:43;9.30;99.90
10451;DHT22;5273;51.290;6.918;2023-12-22T14:20:10;9.30;99.90
10451;DHT22;5273;51.290;6.918;2023-12-22T14:22:37;9.30;99.90
10451;DHT22;5273;51.290;6.918;2023-12-22T14:25:04;9.30;99.90
10451;DHT22;5273;51.290;6.918;2023-12-22T14:27:31;9.40;99.90
10451;DHT22;5273;51.290;6.918;2023-12-22T14:29:58;9.40;99.90
10451;DHT22;5273;51.290;6.918;2023-12-22T14:32:26;9.40;99.90
10451;DHT22;5273;51.290;6.918;2023-12-22T14:34:55;9.40;99.90
10451;DHT22;5273;51.290;6.918;2023-12-22T14:37:22;9.40;99.90
10451;DHT22;5273;51.290;6.918;2023-12-22T14:39:49;9.30;99.90
10451;DHT22;5273;51.290;6.918;2023-12-22T14:42:16;9.40;99.90
10451;DHT22;5273;51.290;6.918;2023-12-22T14:44:42;9.40;99.90
10451;DHT22;5273;51.290;6.918;2023-12-22T14:47:09;9.40;99.90
10451;DHT22;5273;51.290;6.918;2023-12-22T14:49:37;9.40;99.90
10451;DHT22;5273;51.290;6.918;2023-12-22T14:52:04;9.50;99.90
10451;DHT22;5273;51.290;6.918;2023-12-22T14:54:31;9.40;99.90
10451;DHT22;5273;51.290;6.918;2023-12-22T14:56:58;9.40;99.90
10451;DHT22;5273;51.290;6.918;2023-12-22T14:59:26;9.40;99.90
10451;DHT22;5273;51.290;6.918;2023-12-22T15:01:52;9.40;99.90
10451;DHT22;5273;51.290;6.918;2023-12-22T15:04:19;9.30;99.90
10451;DHT22;5273;51.290;6.918;2023-12-22T15:06:49;9.40;99.90
10451;DHT22;5273;51.290;6.918;2023-12-22T15:09:16;9.40;99.90
10451;DHT22;5273;51.290;6.918;2023-12-22T15:11:44;9.40;99.90
10451;DHT22;5273;51.290;6.918;2023-12-22T15:14:11;9.30;99.90
10451;DHT22;5273;51.290;6.918;2023-12-22T15:16:40;9.30;99.90
10451;DHT22;5273;51.290;6.918;2023-12-22T15:19:10;9.30;99.90
10451;DHT22;5273;51.290;6.918;2023-12-22T15:21:37;9.20;99.90
10451;DHT22;5273;51.290;6.918;2023-12-22T15:24:06;9.20;99.90
10451;DHT22;5273;51.290;6.918;2023-12-22T15:26:33;9.20;99.90
10451;DHT22;5273;51.290;6.918;2023-12-22T15:29:00;9.20;99.90
10451;DHT22;5273;51.290;6.918;2023-12-22T15:31:27;9.20;99.90
10451;DHT22;5273;51.290;6.918;2023-12-22T15:33:55;9.20;99.90
10451;DHT22;5273;51.290;6.918;2023-12-22T15:36:22;9.20;99.90
10451;DHT22;5273;51.290;6.918;2023-12-22T15:38:49;9.20;99.90
10451;DHT22;5273;51.290;6.918;2023-12-22T15:41:18;9.20;99.90
10451;DHT22;5273;51.290;6.918;2023-12-22T15:43:45;9.20;99.90
10451;DHT22;5273;51.290;6.918;2023-12-22T15:46:12;9.30;99.90
10451;DHT22;5273;51.290;6.918;2023-12-22T15:48:39;9.30;99.90
10451;DHT22;5273;51.290;6.918;2023-12-22T15:51:06;9.30;99.90
10451;DHT22;5273;51.290;6.918;2023-12-22T15:53:33;9.30;99.90
10451;DHT22;5273;51.290;6.918;2023-12-22T15:56:03;9.30;99.90
10451;DHT22;5273;51.290;6.918;2023-12-22T15:58:33;9.30;99.90
10451;DHT22;5273;51.290;6.918;2023-12-22T16:01:00;9.30;99.90
10451;DHT22;5273;51.290;6.918;2023-12-22T16:03:27;9.20;99.90
10451;DHT22;5273;51.290;6.918;2023-12-22T16:05:54;9.40;99.90
10451;DHT22;5273;51.290;6.918;2023-12-22T16:08:21;9.30;99.90